Historyczne dane pomiarowe

Dodano dane terminowe – wersja testowa.

Dane z okresu 1951-2019

Wersja bazy: 1.34 [2019-03-16, lista zmian], aktualizacja planowana na 2019-04-15

Dane meteo z obszaru Polski uzyskane na podstawie danych udostępnionych przez Instytut Meteorologii i Gospodarki Wodnej – Państwowy Instytut Badawczy.

 

Wybierz Datę:    

       

TemperaturaWilgotnośćWiatrCiśnienieOpadyŚniegCzas trwania zjawisk
 Stacja t tx tn tng RH VA  wxwx mslp ppp RRR   cm mm wxwxwxwxwxwxwx
1959-10-10 7.2 11.8 2.6 -4.3 72.5- 0.0 0.7---- 0.0------------
1959-10-09 7.0 13.0 4.1 -2.0 80.3- 0.0 0.7---- 0.0------------
1959-10-08 8.7 13.9 5.0 -2.4 63.5- 2.3 0.3---- 0.0------------
1959-10-07 8.5 13.7 2.8 -3.8 47.3- 0.0 2.0---- 0.0------------
1959-10-06 5.5 11.0 -0.1 -7.0 45.3- 0.0 0.0---- 0.0------------
1959-10-05 1.9 7.0 -2.5 -8.0 54.8- 0.0 1.0---- 0.0------------
1959-10-04 4.8 10.7 2.8 -1.6 90.3- 3.0 1.3---- 0.0------------
1959-10-03 11.9 17.0 9.0 -1.6 51.3- 4.0 1.3---- 0.0------------
1959-10-02 11.1 15.0 4.4 -2.2 58.5- 0.0 0.0---- 0.0------------
1959-10-01 7.5 11.9 0.9 -4.9 71.3- 0.0 0.0---- 0.0------------
1959-09-30 3.8 8.6 0.7 -4.9 82.0- 0.3 0.0---- 0.0------------
1959-09-29 3.8 7.1 0.2 -4.7 81.5- 2.3 0.0---- 0.0------------
1959-09-28 5.2 8.9 4.5 0.2 87.5- 8.0 2.3---- 1.0------------
1959-09-27 10.6 15.7 7.0 1.4 66.5- 5.3 2.3---- 0.0------------
1959-09-26 9.4 14.2 1.6 -3.9 68.3- 1.3 0.3---- 0.0------------
1959-09-25 5.0 9.9 3.0 -2.1 86.5- 2.7 0.0---- 0.0------------
1959-09-24 10.0 12.4 8.1 2.8 74.5- 6.0 2.7---- 0.3------------
1959-09-23 11.8 15.4 10.0 5.4 69.3- 3.7 3.0---- 0.0------------
1959-09-22 14.0 17.5 12.1 3.7 69.8- 4.3 2.7---- 0.1------------
1959-09-21 14.2 18.5 5.3 -1.1 58.8- 0.0 1.3---- 0.0------------
1959-09-20 8.5 13.0 6.0 -1.3 88.0- 3.7 1.0---- 0.0------------
1959-09-19 8.7 13.2 2.7 -4.3 65.5- 2.3 0.0---- 0.0------------
1959-09-18 6.6 10.5 2.3 -4.3 69.8- 1.0 1.0---- 0.0------------
1959-09-17 5.3 10.9 3.1 -1.5 65.0- 1.3 1.3---- 0.0------------
1959-09-16 11.4 15.8 8.3 1.5 75.0- 2.7 1.0---- 0.0------------
1959-09-15 11.9 15.4 6.0 0.0 65.5- 0.7 0.3---- 0.0------------
1959-09-14 9.6 13.8 7.9 5.7 83.0- 5.0 3.0---- 0.0------------
1959-09-13 16.3 21.7 12.8 3.9 58.0- 3.0 3.3---- 0.0------------
1959-09-12 14.5 19.7 9.0 5.4 61.8- 1.3 0.7---- 0.0------------
1959-09-11 13.1 17.5 8.7 2.7 77.5- 0.3 1.0---- 0.0------------
1959-09-10 12.2 16.7 8.3 3.1 83.0- 2.3 1.7---- 0.0------------
1959-09-09 11.6 15.0 9.0 3.4 85.5- 3.7 1.0---- 0.0------------
1959-09-08 10.8 14.7 6.9 2.3 80.8- 4.3 0.0---- 0.0------------
1959-09-07 8.8 12.5 7.4 3.0 90.5- 4.0 0.0---- 0.0------------
1959-09-06 10.4 14.0 7.6 1.5 91.5- 6.0 0.3---- 0.0------------
1959-09-05 11.0 16.3 7.4 2.2 86.5- 1.3 0.3---- 4.7------------
1959-09-04 11.3 16.0 6.4 1.5 80.0- 2.7 0.7---- 0.0------------
1959-09-03 10.4 14.8 5.1 0.5 82.8- 1.3 0.7---- 0.1------------
1959-09-02 8.5 12.0 4.8 0.3 89.5- 4.7 0.0---- 0.0------------
1959-09-01 7.8 12.3 6.1 3.6 84.3- 3.0 1.7---- 0.0------------
1959-08-31 8.4 11.5 4.0 -0.4 86.5- 2.7 2.0---- 0.0------------
1959-08-30 6.9 10.5 4.8 -0.3 83.5- 3.3 2.0---- 0.0------------
1959-08-29 9.4 12.7 6.0 2.8 76.5- 5.7 0.7---- 0.0------------
1959-08-28 12.5 16.8 8.8 3.6 71.5- 6.0 2.0---- 0.0------------
1959-08-27 11.2 18.4 10.1 8.2 72.5- 2.3 4.0---- 0.0------------
1959-08-26 18.6 21.5 15.5 14.2 76.5- 4.7 3.0---- 0.0------------
1959-08-25 20.1 23.2 14.4 9.3 74.5- 6.0 2.7---- 0.0------------
1959-08-24 19.2 24.0 15.9 9.0 76.5- 1.3 0.0---- 0.1------------
1959-08-23 20.2 24.6 17.0 9.7 62.8- 0.7 4.0---- 0.0------------
1959-08-22 20.0 23.6 14.6 7.6 62.3- 0.3 4.7---- 0.0------------
1959-08-21 17.8 23.0 13.9 6.8 69.0- 1.0 2.7---- 0.0------------
1959-08-20 16.2 20.6 12.1 6.6 79.8- 1.3 0.7---- 0.0------------
1959-08-19 14.9 19.4 11.4 6.7 81.5- 1.0 0.7---- 0.0------------
1959-08-18 14.6 18.8 12.1 8.2 92.3- 3.3 1.0---- 5.0------------
1959-08-17 12.5 13.7 9.7 10.4100.0- 8.0 0.0---- 0.4------------
1959-08-16 11.6 16.4 9.9 11.8 99.8- 8.0 0.3---- 19.7------------
1959-08-15 17.0 20.0 13.8 9.8 92.0- 4.7 0.3---- 1.3------------
1959-08-14 17.1 20.3 13.4 9.3 93.8- 4.0 0.3---- 4.4------------
1959-08-13 16.7 20.4 13.7 10.2 93.5- 5.7 0.3---- 0.1------------
1959-08-12 15.0 16.7 13.0 9.4 99.0- 7.7 0.3---- 2.2------------
151.5 ms

 

Źródłem pochodzenia danych jest Instytut Meteorologii i Gospodarki Wodnej – Państwowy Instytut Badawczy. Dane Instytutu Meteorologii i Gospodarki Wodnej – Państwowego Instytutu Badawczego zostały przetworzone.

Dane źródłowe można odnaleźć na stronie https://dane.imgw.pl